sensor_id;sensor_type;location;lat;lon;timestamp;P1;durP1;ratioP1;P2;durP2;ratioP2
55292;SDS011;41157;53.560;10.098;2024-02-21T00:01:51;27.97;;;12.33;;
55292;SDS011;41157;53.560;10.098;2024-02-21T00:04:18;25.30;;;12.13;;
55292;SDS011;41157;53.560;10.098;2024-02-21T00:06:45;31.27;;;11.87;;
55292;SDS011;41157;53.560;10.098;2024-02-21T00:09:12;27.90;;;12.00;;
55292;SDS011;41157;53.560;10.098;2024-02-21T00:11:39;24.13;;;12.00;;
55292;SDS011;41157;53.560;10.098;2024-02-21T00:14:07;33.90;;;12.97;;
55292;SDS011;41157;53.560;10.098;2024-02-21T00:16:34;32.10;;;12.47;;
55292;SDS011;41157;53.560;10.098;2024-02-21T00:19:01;24.20;;;12.50;;
55292;SDS011;41157;53.560;10.098;2024-02-21T00:21:29;31.80;;;12.60;;
55292;SDS011;41157;53.560;10.098;2024-02-21T00:23:56;27.37;;;12.73;;
55292;SDS011;41157;53.560;10.098;2024-02-21T00:26:23;30.00;;;12.67;;
55292;SDS011;41157;53.560;10.098;2024-02-21T00:28:50;33.50;;;13.00;;
55292;SDS011;41157;53.560;10.098;2024-02-21T00:31:19;28.80;;;12.47;;
55292;SDS011;41157;53.560;10.098;2024-02-21T00:33:45;32.00;;;12.93;;
55292;SDS011;41157;53.560;10.098;2024-02-21T00:36:12;31.60;;;13.87;;
55292;SDS011;41157;53.560;10.098;2024-02-21T00:38:39;24.57;;;13.50;;
55292;SDS011;41157;53.560;10.098;2024-02-21T00:41:06;30.63;;;12.70;;
55292;SDS011;41157;53.560;10.098;2024-02-21T00:43:33;33.67;;;13.30;;
55292;SDS011;41157;53.560;10.098;2024-02-21T00:46:00;28.97;;;13.53;;
55292;SDS011;41157;53.560;10.098;2024-02-21T00:48:29;26.33;;;12.23;;
55292;SDS011;41157;53.560;10.098;2024-02-21T00:50:56;26.80;;;13.20;;
55292;SDS011;41157;53.560;10.098;2024-02-21T00:53:23;28.67;;;14.03;;
55292;SDS011;41157;53.560;10.098;2024-02-21T00:55:50;25.23;;;12.87;;
55292;SDS011;41157;53.560;10.098;2024-02-21T00:58:17;34.13;;;12.40;;
55292;SDS011;41157;53.560;10.098;2024-02-21T01:00:44;36.17;;;15.17;;
55292;SDS011;41157;53.560;10.098;2024-02-21T01:03:11;27.93;;;13.53;;
55292;SDS011;41157;53.560;10.098;2024-02-21T01:05:39;28.87;;;13.43;;
55292;SDS011;41157;53.560;10.098;2024-02-21T01:08:06;27.07;;;12.77;;
55292;SDS011;41157;53.560;10.098;2024-02-21T01:10:33;30.37;;;13.90;;
55292;SDS011;41157;53.560;10.098;2024-02-21T01:13:00;29.93;;;14.60;;
55292;SDS011;41157;53.560;10.098;2024-02-21T01:15:27;34.37;;;15.20;;
55292;SDS011;41157;53.560;10.098;2024-02-21T01:17:54;30.43;;;14.23;;
55292;SDS011;41157;53.560;10.098;2024-02-21T01:20:21;30.60;;;14.33;;
55292;SDS011;41157;53.560;10.098;2024-02-21T01:22:49;33.47;;;14.63;;
55292;SDS011;41157;53.560;10.098;2024-02-21T01:25:17;29.33;;;14.47;;
55292;SDS011;41157;53.560;10.098;2024-02-21T01:27:44;31.17;;;14.67;;
55292;SDS011;41157;53.560;10.098;2024-02-21T01:30:11;39.13;;;15.43;;
55292;SDS011;41157;53.560;10.098;2024-02-21T01:32:38;31.10;;;14.67;;
55292;SDS011;41157;53.560;10.098;2024-02-21T01:35:06;27.80;;;15.43;;
55292;SDS011;41157;53.560;10.098;2024-02-21T01:37:33;41.40;;;16.57;;
55292;SDS011;41157;53.560;10.098;2024-02-21T01:40:02;30.50;;;14.63;;
55292;SDS011;41157;53.560;10.098;2024-02-21T01:42:29;32.03;;;15.33;;
55292;SDS011;41157;53.560;10.098;2024-02-21T01:44:56;31.60;;;14.93;;
55292;SDS011;41157;53.560;10.098;2024-02-21T01:47:23;32.40;;;15.00;;
55292;SDS011;41157;53.560;10.098;2024-02-21T01:49:50;33.77;;;16.00;;
55292;SDS011;41157;53.560;10.098;2024-02-21T01:52:17;29.53;;;16.33;;
55292;SDS011;41157;53.560;10.098;2024-02-21T01:54:44;34.57;;;15.50;;
55292;SDS011;41157;53.560;10.098;2024-02-21T01:57:13;35.53;;;15.00;;
55292;SDS011;41157;53.560;10.098;2024-02-21T01:59:40;32.43;;;16.47;;
55292;SDS011;41157;53.560;10.098;2024-02-21T02:02:07;47.37;;;19.83;;
55292;SDS011;41157;53.560;10.098;2024-02-21T02:04:34;40.67;;;22.37;;
55292;SDS011;41157;53.560;10.098;2024-02-21T02:07:02;31.90;;;16.73;;
55292;SDS011;41157;53.560;10.098;2024-02-21T02:09:30;31.90;;;16.90;;
55292;SDS011;41157;53.560;10.098;2024-02-21T02:11:57;30.53;;;15.97;;
55292;SDS011;41157;53.560;10.098;2024-02-21T02:14:25;26.57;;;16.33;;
55292;SDS011;41157;53.560;10.098;2024-02-21T02:16:52;28.93;;;15.73;;
55292;SDS011;41157;53.560;10.098;2024-02-21T02:19:19;26.27;;;16.37;;
55292;SDS011;41157;53.560;10.098;2024-02-21T02:21:46;30.57;;;16.17;;
55292;SDS011;41157;53.560;10.098;2024-02-21T02:24:19;36.87;;;17.63;;
55292;SDS011;41157;53.560;10.098;2024-02-21T02:26:46;36.47;;;17.13;;
55292;SDS011;41157;53.560;10.098;2024-02-21T02:29:13;32.70;;;16.00;;
55292;SDS011;41157;53.560;10.098;2024-02-21T02:31:41;30.23;;;16.23;;
55292;SDS011;41157;53.560;10.098;2024-02-21T02:34:08;29.17;;;15.87;;
55292;SDS011;41157;53.560;10.098;2024-02-21T02:36:35;33.43;;;16.77;;
55292;SDS011;41157;53.560;10.098;2024-02-21T02:39:02;35.27;;;17.63;;
55292;SDS011;41157;53.560;10.098;2024-02-21T02:41:31;30.47;;;16.67;;
55292;SDS011;41157;53.560;10.098;2024-02-21T02:43:58;41.93;;;17.77;;
55292;SDS011;41157;53.560;10.098;2024-02-21T02:46:25;27.63;;;15.70;;
55292;SDS011;41157;53.560;10.098;2024-02-21T02:48:52;30.50;;;16.87;;
55292;SDS011;41157;53.560;10.098;2024-02-21T02:51:19;30.57;;;17.13;;
55292;SDS011;41157;53.560;10.098;2024-02-21T02:53:46;30.57;;;16.20;;
55292;SDS011;41157;53.560;10.098;2024-02-21T02:56:16;32.40;;;17.40;;
55292;SDS011;41157;53.560;10.098;2024-02-21T02:58:44;42.90;;;18.33;;
55292;SDS011;41157;53.560;10.098;2024-02-21T03:01:11;36.03;;;18.30;;
55292;SDS011;41157;53.560;10.098;2024-02-21T03:03:38;35.13;;;16.87;;
55292;SDS011;41157;53.560;10.098;2024-02-21T03:06:05;35.27;;;17.57;;
55292;SDS011;41157;53.560;10.098;2024-02-21T03:08:32;32.53;;;15.47;;
55292;SDS011;41157;53.560;10.098;2024-02-21T03:10:59;32.10;;;17.43;;
55292;SDS011;41157;53.560;10.098;2024-02-21T03:13:26;36.83;;;17.33;;
55292;SDS011;41157;53.560;10.098;2024-02-21T03:15:55;41.10;;;17.27;;
55292;SDS011;41157;53.560;10.098;2024-02-21T03:18:22;36.63;;;16.80;;
55292;SDS011;41157;53.560;10.098;2024-02-21T03:20:49;26.53;;;15.77;;
55292;SDS011;41157;53.560;10.098;2024-02-21T03:23:16;43.10;;;17.40;;
55292;SDS011;41157;53.560;10.098;2024-02-21T03:25:43;45.27;;;18.33;;
55292;SDS011;41157;53.560;10.098;2024-02-21T03:28:10;39.57;;;17.47;;
55292;SDS011;41157;53.560;10.098;2024-02-21T03:30:37;33.07;;;16.73;;
55292;SDS011;41157;53.560;10.098;2024-02-21T03:33:05;33.13;;;17.63;;
55292;SDS011;41157;53.560;10.098;2024-02-21T03:35:32;31.60;;;16.07;;
55292;SDS011;41157;53.560;10.098;2024-02-21T03:37:59;34.93;;;16.40;;
55292;SDS011;41157;53.560;10.098;2024-02-21T03:40:26;36.50;;;16.50;;
55292;SDS011;41157;53.560;10.098;2024-02-21T03:42:53;30.13;;;16.23;;
55292;SDS011;41157;53.560;10.098;2024-02-21T03:45:20;32.57;;;16.87;;
55292;SDS011;41157;53.560;10.098;2024-02-21T03:47:47;36.73;;;16.93;;
55292;SDS011;41157;53.560;10.098;2024-02-21T03:50:16;33.40;;;16.33;;
55292;SDS011;41157;53.560;10.098;2024-02-21T03:52:43;32.13;;;16.10;;
55292;SDS011;41157;53.560;10.098;2024-02-21T03:55:10;33.80;;;15.57;;
55292;SDS011;41157;53.560;10.098;2024-02-21T03:57:37;30.77;;;15.63;;
55292;SDS011;41157;53.560;10.098;2024-02-21T04:00:05;33.80;;;16.23;;
55292;SDS011;41157;53.560;10.098;2024-02-21T04:02:35;33.20;;;15.27;;
55292;SDS011;41157;53.560;10.098;2024-02-21T04:05:03;32.97;;;16.33;;
55292;SDS011;41157;53.560;10.098;2024-02-21T04:07:31;32.20;;;15.57;;
55292;SDS011;41157;53.560;10.098;2024-02-21T04:09:58;32.57;;;15.47;;
55292;SDS011;41157;53.560;10.098;2024-02-21T04:12:25;33.97;;;15.87;;
55292;SDS011;41157;53.560;10.098;2024-02-21T04:14:52;32.73;;;15.43;;
55292;SDS011;41157;53.560;10.098;2024-02-21T04:17:19;37.30;;;17.33;;
55292;SDS011;41157;53.560;10.098;2024-02-21T04:19:46;35.87;;;17.33;;
55292;SDS011;41157;53.560;10.098;2024-02-21T04:22:13;29.20;;;16.53;;
55292;SDS011;41157;53.560;10.098;2024-02-21T04:24:41;33.70;;;15.37;;
55292;SDS011;41157;53.560;10.098;2024-02-21T04:27:08;26.43;;;14.50;;
55292;SDS011;41157;53.560;10.098;2024-02-21T04:29:36;35.03;;;15.57;;
55292;SDS011;41157;53.560;10.098;2024-02-21T04:32:03;31.77;;;14.77;;
55292;SDS011;41157;53.560;10.098;2024-02-21T04:34:30;29.27;;;14.43;;
55292;SDS011;41157;53.560;10.098;2024-02-21T04:36:57;32.67;;;14.67;;
55292;SDS011;41157;53.560;10.098;2024-02-21T04:39:24;27.67;;;14.53;;
55292;SDS011;41157;53.560;10.098;2024-02-21T04:41:52;34.70;;;15.10;;
55292;SDS011;41157;53.560;10.098;2024-02-21T04:44:19;31.23;;;15.03;;
55292;SDS011;41157;53.560;10.098;2024-02-21T04:46:47;23.70;;;13.07;;
55292;SDS011;41157;53.560;10.098;2024-02-21T04:49:14;29.97;;;14.83;;
55292;SDS011;41157;53.560;10.098;2024-02-21T04:51:41;28.20;;;14.43;;
55292;SDS011;41157;53.560;10.098;2024-02-21T04:54:08;28.70;;;13.57;;
55292;SDS011;41157;53.560;10.098;2024-02-21T04:56:35;28.97;;;14.13;;
55292;SDS011;41157;53.560;10.098;2024-02-21T04:59:03;32.87;;;12.97;;
55292;SDS011;41157;53.560;10.098;2024-02-21T05:01:30;23.87;;;13.50;;
55292;SDS011;41157;53.560;10.098;2024-02-21T05:03:57;26.70;;;13.30;;
55292;SDS011;41157;53.560;10.098;2024-02-21T05:06:24;28.87;;;12.90;;
55292;SDS011;41157;53.560;10.098;2024-02-21T05:08:51;19.97;;;13.27;;
55292;SDS011;41157;53.560;10.098;2024-02-21T05:11:20;27.33;;;12.80;;
55292;SDS011;41157;53.560;10.098;2024-02-21T05:13:47;21.93;;;12.90;;
55292;SDS011;41157;53.560;10.098;2024-02-21T05:16:15;21.50;;;11.80;;
55292;SDS011;41157;53.560;10.098;2024-02-21T05:18:44;22.70;;;12.20;;
55292;SDS011;41157;53.560;10.098;2024-02-21T05:21:11;18.90;;;11.60;;
55292;SDS011;41157;53.560;10.098;2024-02-21T05:23:38;20.17;;;11.23;;
55292;SDS011;41157;53.560;10.098;2024-02-21T05:26:05;18.80;;;10.90;;
55292;SDS011;41157;53.560;10.098;2024-02-21T05:28:33;21.63;;;11.60;;
55292;SDS011;41157;53.560;10.098;2024-02-21T05:31:00;21.10;;;10.90;;
55292;SDS011;41157;53.560;10.098;2024-02-21T05:33:29;17.23;;;10.93;;
55292;SDS011;41157;53.560;10.098;2024-02-21T05:35:56;17.63;;;10.10;;
55292;SDS011;41157;53.560;10.098;2024-02-21T05:38:23;18.57;;;9.87;;
55292;SDS011;41157;53.560;10.098;2024-02-21T05:40:51;16.23;;;10.13;;
55292;SDS011;41157;53.560;10.098;2024-02-21T05:43:18;20.40;;;11.20;;
55292;SDS011;41157;53.560;10.098;2024-02-21T05:45:45;18.53;;;11.23;;
55292;SDS011;41157;53.560;10.098;2024-02-21T05:48:12;15.90;;;9.20;;
55292;SDS011;41157;53.560;10.098;2024-02-21T05:50:40;15.20;;;9.07;;
55292;SDS011;41157;53.560;10.098;2024-02-21T05:53:07;15.13;;;8.57;;
55292;SDS011;41157;53.560;10.098;2024-02-21T05:55:35;16.63;;;9.47;;
55292;SDS011;41157;53.560;10.098;2024-02-21T05:58:02;18.13;;;9.07;;
55292;SDS011;41157;53.560;10.098;2024-02-21T06:00:29;15.93;;;8.50;;
55292;SDS011;41157;53.560;10.098;2024-02-21T06:02:56;13.47;;;9.00;;
55292;SDS011;41157;53.560;10.098;2024-02-21T06:05:23;13.50;;;8.63;;
55292;SDS011;41157;53.560;10.098;2024-02-21T06:07:51;13.90;;;9.00;;
55292;SDS011;41157;53.560;10.098;2024-02-21T06:10:18;13.60;;;9.10;;
55292;SDS011;41157;53.560;10.098;2024-02-21T06:12:45;11.33;;;9.03;;
55292;SDS011;41157;53.560;10.098;2024-02-21T06:15:12;12.20;;;7.53;;
55292;SDS011;41157;53.560;10.098;2024-02-21T06:17:39;9.83;;;7.07;;
55292;SDS011;41157;53.560;10.098;2024-02-21T06:20:07;13.87;;;8.03;;
55292;SDS011;41157;53.560;10.098;2024-02-21T06:22:34;11.57;;;7.23;;
55292;SDS011;41157;53.560;10.098;2024-02-21T06:25:02;9.47;;;7.47;;
55292;SDS011;41157;53.560;10.098;2024-02-21T06:27:29;9.77;;;6.57;;
55292;SDS011;41157;53.560;10.098;2024-02-21T06:29:56;12.57;;;6.70;;
55292;SDS011;41157;53.560;10.098;2024-02-21T06:32:23;9.80;;;6.93;;
55292;SDS011;41157;53.560;10.098;2024-02-21T06:34:50;9.60;;;6.63;;
55292;SDS011;41157;53.560;10.098;2024-02-21T06:37:18;13.07;;;7.73;;
55292;SDS011;41157;53.560;10.098;2024-02-21T06:39:45;11.47;;;6.93;;
55292;SDS011;41157;53.560;10.098;2024-02-21T06:42:13;9.67;;;6.57;;
55292;SDS011;41157;53.560;10.098;2024-02-21T06:44:40;9.63;;;6.90;;
55292;SDS011;41157;53.560;10.098;2024-02-21T06:47:07;7.60;;;6.07;;
55292;SDS011;41157;53.560;10.098;2024-02-21T06:49:34;9.90;;;6.10;;
55292;SDS011;41157;53.560;10.098;2024-02-21T06:52:02;8.60;;;5.60;;
55292;SDS011;41157;53.560;10.098;2024-02-21T06:54:29;10.00;;;6.20;;
55292;SDS011;41157;53.560;10.098;2024-02-21T06:56:56;7.53;;;5.53;;
55292;SDS011;41157;53.560;10.098;2024-02-21T06:59:24;6.40;;;4.70;;
55292;SDS011;41157;53.560;10.098;2024-02-21T07:01:53;7.40;;;5.43;;
55292;SDS011;41157;53.560;10.098;2024-02-21T07:04:21;6.17;;;4.90;;
55292;SDS011;41157;53.560;10.098;2024-02-21T07:06:48;7.93;;;5.17;;
55292;SDS011;41157;53.560;10.098;2024-02-21T07:09:16;5.47;;;4.93;;
55292;SDS011;41157;53.560;10.098;2024-02-21T07:11:43;7.53;;;5.27;;
55292;SDS011;41157;53.560;10.098;2024-02-21T07:14:10;9.43;;;5.33;;
55292;SDS011;41157;53.560;10.098;2024-02-21T07:16:38;7.10;;;5.73;;
55292;SDS011;41157;53.560;10.098;2024-02-21T07:19:05;7.57;;;5.47;;
55292;SDS011;41157;53.560;10.098;2024-02-21T07:21:32;6.87;;;5.87;;
55292;SDS011;41157;53.560;10.098;2024-02-21T07:23:59;7.90;;;6.03;;
55292;SDS011;41157;53.560;10.098;2024-02-21T07:26:26;6.67;;;5.13;;
55292;SDS011;41157;53.560;10.098;2024-02-21T07:28:53;7.50;;;5.53;;
55292;SDS011;41157;53.560;10.098;2024-02-21T07:31:20;6.53;;;4.73;;
55292;SDS011;41157;53.560;10.098;2024-02-21T07:33:49;8.97;;;5.70;;
55292;SDS011;41157;53.560;10.098;2024-02-21T07:36:23;7.77;;;5.87;;
55292;SDS011;41157;53.560;10.098;2024-02-21T07:38:50;10.73;;;6.00;;
55292;SDS011;41157;53.560;10.098;2024-02-21T07:41:18;10.27;;;6.17;;
55292;SDS011;41157;53.560;10.098;2024-02-21T07:43:45;9.70;;;6.30;;
55292;SDS011;41157;53.560;10.098;2024-02-21T07:46:13;7.27;;;5.27;;
55292;SDS011;41157;53.560;10.098;2024-02-21T07:48:40;11.03;;;5.67;;
55292;SDS011;41157;53.560;10.098;2024-02-21T07:51:09;7.53;;;5.57;;
55292;SDS011;41157;53.560;10.098;2024-02-21T07:53:36;8.00;;;5.73;;
55292;SDS011;41157;53.560;10.098;2024-02-21T07:56:03;8.37;;;5.50;;
55292;SDS011;41157;53.560;10.098;2024-02-21T07:58:30;11.03;;;5.07;;
55292;SDS011;41157;53.560;10.098;2024-02-21T08:00:57;8.47;;;5.00;;
55292;SDS011;41157;53.560;10.098;2024-02-21T08:03:24;9.60;;;5.37;;
55292;SDS011;41157;53.560;10.098;2024-02-21T08:05:51;6.57;;;5.23;;
55292;SDS011;41157;53.560;10.098;2024-02-21T08:08:20;7.83;;;5.27;;
55292;SDS011;41157;53.560;10.098;2024-02-21T08:10:47;6.97;;;5.43;;
55292;SDS011;41157;53.560;10.098;2024-02-21T08:13:14;7.07;;;5.03;;
55292;SDS011;41157;53.560;10.098;2024-02-21T08:15:41;7.23;;;5.23;;
55292;SDS011;41157;53.560;10.098;2024-02-21T08:18:08;6.73;;;5.20;;
55292;SDS011;41157;53.560;10.098;2024-02-21T08:20:35;6.07;;;5.17;;
55292;SDS011;41157;53.560;10.098;2024-02-21T08:23:02;7.60;;;4.83;;
55292;SDS011;41157;53.560;10.098;2024-02-21T08:25:31;5.77;;;4.30;;
55292;SDS011;41157;53.560;10.098;2024-02-21T08:27:58;7.37;;;4.00;;
55292;SDS011;41157;53.560;10.098;2024-02-21T08:30:25;7.53;;;3.97;;
55292;SDS011;41157;53.560;10.098;2024-02-21T08:32:52;8.30;;;3.50;;
55292;SDS011;41157;53.560;10.098;2024-02-21T08:35:20;5.80;;;3.50;;
55292;SDS011;41157;53.560;10.098;2024-02-21T08:37:47;9.10;;;2.93;;
55292;SDS011;41157;53.560;10.098;2024-02-21T08:40:14;7.87;;;3.00;;
55292;SDS011;41157;53.560;10.098;2024-02-21T08:42:47;8.37;;;2.90;;
55292;SDS011;41157;53.560;10.098;2024-02-21T08:45:15;8.87;;;2.67;;
55292;SDS011;41157;53.560;10.098;2024-02-21T08:47:42;9.47;;;2.73;;
55292;SDS011;41157;53.560;10.098;2024-02-21T08:50:09;11.93;;;3.57;;
55292;SDS011;41157;53.560;10.098;2024-02-21T08:52:37;11.80;;;2.87;;
55292;SDS011;41157;53.560;10.098;2024-02-21T08:55:04;9.43;;;2.57;;
55292;SDS011;41157;53.560;10.098;2024-02-21T08:57:31;9.73;;;2.90;;
55292;SDS011;41157;53.560;10.098;2024-02-21T09:00:03;9.87;;;2.80;;
55292;SDS011;41157;53.560;10.098;2024-02-21T09:02:35;13.03;;;2.60;;
55292;SDS011;41157;53.560;10.098;2024-02-21T09:05:03;11.30;;;2.30;;
55292;SDS011;41157;53.560;10.098;2024-02-21T09:07:30;5.43;;;2.63;;
55292;SDS011;41157;53.560;10.098;2024-02-21T09:09:57;7.47;;;2.60;;
55292;SDS011;41157;53.560;10.098;2024-02-21T09:12:25;10.17;;;2.87;;
55292;SDS011;41157;53.560;10.098;2024-02-21T09:14:51;6.43;;;2.87;;
55292;SDS011;41157;53.560;10.098;2024-02-21T09:17:20;7.30;;;2.83;;
55292;SDS011;41157;53.560;10.098;2024-02-21T09:19:47;11.87;;;2.90;;
55292;SDS011;41157;53.560;10.098;2024-02-21T09:22:14;8.07;;;2.67;;
55292;SDS011;41157;53.560;10.098;2024-02-21T09:24:41;8.83;;;3.07;;
55292;SDS011;41157;53.560;10.098;2024-02-21T09:27:08;9.93;;;2.60;;
55292;SDS011;41157;53.560;10.098;2024-02-21T09:29:35;7.37;;;2.10;;
55292;SDS011;41157;53.560;10.098;2024-02-21T09:32:02;6.77;;;2.57;;
55292;SDS011;41157;53.560;10.098;2024-02-21T09:34:30;8.57;;;2.83;;
55292;SDS011;41157;53.560;10.098;2024-02-21T09:36:57;5.93;;;2.40;;
55292;SDS011;41157;53.560;10.098;2024-02-21T09:39:24;13.53;;;2.80;;
55292;SDS011;41157;53.560;10.098;2024-02-21T09:41:53;6.37;;;2.07;;
55292;SDS011;41157;53.560;10.098;2024-02-21T09:44:21;5.60;;;2.50;;
55292;SDS011;41157;53.560;10.098;2024-02-21T09:46:52;9.83;;;2.63;;
55292;SDS011;41157;53.560;10.098;2024-02-21T09:49:21;6.17;;;2.30;;
55292;SDS011;41157;53.560;10.098;2024-02-21T09:51:53;9.20;;;2.37;;
55292;SDS011;41157;53.560;10.098;2024-02-21T09:54:20;4.93;;;2.13;;
55292;SDS011;41157;53.560;10.098;2024-02-21T09:56:48;8.03;;;2.23;;
55292;SDS011;41157;53.560;10.098;2024-02-21T09:59:15;5.30;;;2.27;;
55292;SDS011;41157;53.560;10.098;2024-02-21T10:01:42;5.17;;;2.10;;
55292;SDS011;41157;53.560;10.098;2024-02-21T10:04:09;6.40;;;2.20;;
55292;SDS011;41157;53.560;10.098;2024-02-21T10:06:36;4.83;;;2.20;;
55292;SDS011;41157;53.560;10.098;2024-02-21T10:09:05;2.57;;;2.00;;
55292;SDS011;41157;53.560;10.098;2024-02-21T10:11:32;5.33;;;2.13;;
55292;SDS011;41157;53.560;10.098;2024-02-21T10:14:04;7.10;;;2.30;;
55292;SDS011;41157;53.560;10.098;2024-02-21T10:16:31;7.87;;;3.50;;
55292;SDS011;41157;53.560;10.098;2024-02-21T10:18:58;6.30;;;2.90;;
55292;SDS011;41157;53.560;10.098;2024-02-21T10:21:25;6.93;;;3.50;;
55292;SDS011;41157;53.560;10.098;2024-02-21T10:23:52;9.43;;;3.43;;
55292;SDS011;41157;53.560;10.098;2024-02-21T10:26:21;8.20;;;4.17;;
55292;SDS011;41157;53.560;10.098;2024-02-21T10:28:48;8.10;;;5.20;;
55292;SDS011;41157;53.560;10.098;2024-02-21T10:31:23;6.57;;;4.60;;
55292;SDS011;41157;53.560;10.098;2024-02-21T10:33:54;10.20;;;6.20;;
55292;SDS011;41157;53.560;10.098;2024-02-21T10:36:21;9.63;;;6.37;;
55292;SDS011;41157;53.560;10.098;2024-02-21T10:38:49;12.67;;;7.00;;
55292;SDS011;41157;53.560;10.098;2024-02-21T10:41:16;14.17;;;8.43;;
55292;SDS011;41157;53.560;10.098;2024-02-21T10:43:48;12.87;;;8.90;;
55292;SDS011;41157;53.560;10.098;2024-02-21T10:46:17;14.13;;;9.13;;
55292;SDS011;41157;53.560;10.098;2024-02-21T10:48:45;17.30;;;9.20;;
55292;SDS011;41157;53.560;10.098;2024-02-21T10:51:14;19.83;;;9.70;;
55292;SDS011;41157;53.560;10.098;2024-02-21T10:53:44;18.43;;;10.13;;
55292;SDS011;41157;53.560;10.098;2024-02-21T10:56:16;15.37;;;10.30;;
55292;SDS011;41157;53.560;10.098;2024-02-21T10:58:49;17.07;;;9.93;;
55292;SDS011;41157;53.560;10.098;2024-02-21T11:01:16;17.03;;;9.97;;
55292;SDS011;41157;53.560;10.098;2024-02-21T11:03:44;21.43;;;11.10;;
55292;SDS011;41157;53.560;10.098;2024-02-21T11:06:12;16.57;;;9.77;;
55292;SDS011;41157;53.560;10.098;2024-02-21T11:08:39;15.13;;;9.70;;
55292;SDS011;41157;53.560;10.098;2024-02-21T11:11:06;22.23;;;10.73;;
55292;SDS011;41157;53.560;10.098;2024-02-21T11:13:35;22.13;;;10.33;;
55292;SDS011;41157;53.560;10.098;2024-02-21T11:16:08;14.47;;;9.50;;
55292;SDS011;41157;53.560;10.098;2024-02-21T11:18:35;21.53;;;9.70;;
55292;SDS011;41157;53.560;10.098;2024-02-21T11:21:03;16.77;;;9.67;;
55292;SDS011;41157;53.560;10.098;2024-02-21T11:23:30;21.90;;;9.70;;
55292;SDS011;41157;53.560;10.098;2024-02-21T11:26:04;19.37;;;9.90;;
55292;SDS011;41157;53.560;10.098;2024-02-21T11:28:31;19.37;;;9.33;;
55292;SDS011;41157;53.560;10.098;2024-02-21T11:31:08;16.63;;;9.43;;
55292;SDS011;41157;53.560;10.098;2024-02-21T11:33:35;18.73;;;9.73;;
55292;SDS011;41157;53.560;10.098;2024-02-21T11:36:02;17.70;;;8.87;;
55292;SDS011;41157;53.560;10.098;2024-02-21T11:38:29;18.83;;;8.70;;
55292;SDS011;41157;53.560;10.098;2024-02-21T11:40:56;16.20;;;8.33;;
55292;SDS011;41157;53.560;10.098;2024-02-21T11:43:24;14.07;;;7.80;;
55292;SDS011;41157;53.560;10.098;2024-02-21T11:45:57;18.47;;;8.30;;
55292;SDS011;41157;53.560;10.098;2024-02-21T11:48:26;13.17;;;7.87;;
55292;SDS011;41157;53.560;10.098;2024-02-21T11:50:53;17.77;;;8.50;;
55292;SDS011;41157;53.560;10.098;2024-02-21T11:53:21;14.27;;;8.13;;
55292;SDS011;41157;53.560;10.098;2024-02-21T11:55:48;17.93;;;8.53;;
55292;SDS011;41157;53.560;10.098;2024-02-21T11:58:15;19.30;;;7.67;;
55292;SDS011;41157;53.560;10.098;2024-02-21T12:00:42;14.07;;;7.67;;
55292;SDS011;41157;53.560;10.098;2024-02-21T12:03:09;17.07;;;8.50;;
55292;SDS011;41157;53.560;10.098;2024-02-21T12:05:38;14.47;;;7.33;;
55292;SDS011;41157;53.560;10.098;2024-02-21T12:08:05;19.33;;;7.23;;
55292;SDS011;41157;53.560;10.098;2024-02-21T12:10:32;14.80;;;7.43;;
55292;SDS011;41157;53.560;10.098;2024-02-21T12:13:06;16.50;;;8.20;;
55292;SDS011;41157;53.560;10.098;2024-02-21T12:15:34;14.47;;;7.60;;
55292;SDS011;41157;53.560;10.098;2024-02-21T12:18:01;12.03;;;7.53;;
55292;SDS011;41157;53.560;10.098;2024-02-21T12:20:28;16.03;;;7.47;;
55292;SDS011;41157;53.560;10.098;2024-02-21T12:22:57;14.67;;;6.90;;
55292;SDS011;41157;53.560;10.098;2024-02-21T12:25:26;14.50;;;7.13;;
55292;SDS011;41157;53.560;10.098;2024-02-21T12:27:54;14.80;;;7.10;;
55292;SDS011;41157;53.560;10.098;2024-02-21T12:30:21;17.20;;;7.33;;
55292;SDS011;41157;53.560;10.098;2024-02-21T12:32:49;12.87;;;7.13;;
55292;SDS011;41157;53.560;10.098;2024-02-21T12:35:16;12.73;;;7.57;;
55292;SDS011;41157;53.560;10.098;2024-02-21T12:37:44;14.10;;;7.33;;
55292;SDS011;41157;53.560;10.098;2024-02-21T12:40:12;16.10;;;7.40;;
55292;SDS011;41157;53.560;10.098;2024-02-21T12:42:39;13.83;;;8.00;;
55292;SDS011;41157;53.560;10.098;2024-02-21T12:45:07;11.87;;;8.13;;
55292;SDS011;41157;53.560;10.098;2024-02-21T12:47:34;14.33;;;7.17;;
55292;SDS011;41157;53.560;10.098;2024-02-21T12:50:01;17.33;;;8.50;;
55292;SDS011;41157;53.560;10.098;2024-02-21T12:52:29;13.77;;;8.20;;
55292;SDS011;41157;53.560;10.098;2024-02-21T12:54:56;13.93;;;7.83;;
55292;SDS011;41157;53.560;10.098;2024-02-21T12:57:25;15.13;;;8.63;;
55292;SDS011;41157;53.560;10.098;2024-02-21T12:59:52;17.87;;;8.70;;
55292;SDS011;41157;53.560;10.098;2024-02-21T13:02:19;21.57;;;9.10;;
55292;SDS011;41157;53.560;10.098;2024-02-21T13:04:46;17.47;;;8.43;;
55292;SDS011;41157;53.560;10.098;2024-02-21T13:07:13;14.47;;;7.73;;
55292;SDS011;41157;53.560;10.098;2024-02-21T13:09:40;17.70;;;8.80;;
55292;SDS011;41157;53.560;10.098;2024-02-21T13:12:07;18.83;;;8.57;;
55292;SDS011;41157;53.560;10.098;2024-02-21T13:14:36;18.70;;;8.30;;
55292;SDS011;41157;53.560;10.098;2024-02-21T13:17:04;17.37;;;8.20;;
55292;SDS011;41157;53.560;10.098;2024-02-21T13:19:31;20.33;;;8.10;;
55292;SDS011;41157;53.560;10.098;2024-02-21T13:21:58;19.93;;;9.03;;
55292;SDS011;41157;53.560;10.098;2024-02-21T13:24:27;17.33;;;8.90;;
55292;SDS011;41157;53.560;10.098;2024-02-21T13:26:54;15.83;;;7.97;;
55292;SDS011;41157;53.560;10.098;2024-02-21T13:29:21;21.67;;;8.77;;
55292;SDS011;41157;53.560;10.098;2024-02-21T13:31:49;13.80;;;8.17;;
55292;SDS011;41157;53.560;10.098;2024-02-21T13:34:16;17.27;;;9.03;;
55292;SDS011;41157;53.560;10.098;2024-02-21T13:36:43;18.00;;;8.53;;
55292;SDS011;41157;53.560;10.098;2024-02-21T13:39:10;17.83;;;9.07;;
55292;SDS011;41157;53.560;10.098;2024-02-21T13:41:40;19.93;;;8.53;;
55292;SDS011;41157;53.560;10.098;2024-02-21T13:44:07;14.07;;;7.83;;
55292;SDS011;41157;53.560;10.098;2024-02-21T13:46:35;14.57;;;8.17;;
55292;SDS011;41157;53.560;10.098;2024-02-21T13:49:04;19.27;;;9.20;;
55292;SDS011;41157;53.560;10.098;2024-02-21T13:51:32;15.90;;;8.03;;
55292;SDS011;41157;53.560;10.098;2024-02-21T13:54:01;20.47;;;8.70;;
55292;SDS011;41157;53.560;10.098;2024-02-21T13:56:28;16.33;;;8.67;;
55292;SDS011;41157;53.560;10.098;2024-02-21T13:58:55;14.97;;;8.00;;
55292;SDS011;41157;53.560;10.098;2024-02-21T14:01:22;17.03;;;7.80;;
55292;SDS011;41157;53.560;10.098;2024-02-21T14:03:49;17.83;;;7.77;;
55292;SDS011;41157;53.560;10.098;2024-02-21T14:06:17;15.87;;;7.53;;
55292;SDS011;41157;53.560;10.098;2024-02-21T14:08:44;12.73;;;7.97;;
55292;SDS011;41157;53.560;10.098;2024-02-21T14:11:11;11.80;;;7.37;;
55292;SDS011;41157;53.560;10.098;2024-02-21T14:13:39;15.30;;;8.20;;
55292;SDS011;41157;53.560;10.098;2024-02-21T14:16:08;16.33;;;7.70;;
55292;SDS011;41157;53.560;10.098;2024-02-21T14:18:38;12.43;;;7.73;;
55292;SDS011;41157;53.560;10.098;2024-02-21T14:21:06;19.83;;;8.03;;